Time;durP1;ratioP1;P1;durP2;ratioP2;P2;SDS_P1;SDS_P2;PMS_P1;PMS_P2;Temp;Humidity;BMP_temperature;BMP_pressure;BME280_temperature;BME280_humidity;BME280_pressure;Samples;Min_cycle;Max_cycle;Signal;HPM_P1;HPM_P2
2022/12/03 00:01:55;;;;;;;22.65;10.55;;;4.10;99.90;;;;;;5094937;28;20170;-84
2022/12/03 00:04:20;;;;;;;19.17;9.98;;;5.20;99.90;;;;;;5088883;28;20036;-82
2022/12/03 00:06:46;;;;;;;19.20;9.50;;;4.50;99.90;;;;;;5073296;28;20523;-83
2022/12/03 00:09:12;;;;;;;17.80;9.73;;;4.20;99.90;;;;;;5093917;28;20035;-82
2022/12/03 00:11:37;;;;;;;19.88;10.27;;;5.20;99.90;;;;;;5068633;28;20054;-83
2022/12/03 00:14:03;;;;;;;20.23;10.55;;;5.70;99.90;;;;;;5092661;28;20043;-82
2022/12/03 00:16:29;;;;;;;19.30;9.82;;;4.30;99.90;;;;;;5089998;28;20101;-83
2022/12/03 00:18:55;;;;;;;19.88;10.27;;;4.30;99.90;;;;;;5092409;28;20031;-83
2022/12/03 00:21:20;;;;;;;19.08;10.38;;;4.40;99.90;;;;;;5097367;28;20027;-83
2022/12/03 00:23:46;;;;;;;19.48;10.23;;;4.40;99.90;;;;;;5072824;28;20105;-81
2022/12/03 00:26:12;;;;;;;17.95;9.43;;;5.00;99.90;;;;;;5104560;28;20058;-83
2022/12/03 00:28:37;;;;;;;19.20;9.50;;;4.40;99.90;;;;;;5081000;28;20044;-83
2022/12/03 00:31:03;;;;;;;18.48;9.95;;;4.40;99.90;;;;;;5077286;28;20116;-82
2022/12/03 00:33:30;;;;;;;18.55;9.85;;;4.50;99.90;;;;;;5071917;28;20043;-83
2022/12/03 00:35:55;;;;;;;19.23;10.10;;;5.10;99.90;;;;;;5059521;28;20043;-83
2022/12/03 00:38:21;;;;;;;17.33;9.63;;;4.50;99.90;;;;;;5100349;28;20035;-82
2022/12/03 00:40:47;;;;;;;19.23;10.15;;;5.10;99.90;;;;;;5092484;28;20040;-83
2022/12/03 00:43:13;;;;;;;17.77;10.32;;;4.50;99.90;;;;;;5090622;28;20050;-82
2022/12/03 00:45:38;;;;;;;19.27;10.30;;;4.80;99.90;;;;;;5072705;28;20353;-82
2022/12/03 00:48:04;;;;;;;18.38;9.77;;;5.50;99.90;;;;;;5057790;28;20044;-82
2022/12/03 00:50:30;;;;;;;17.90;9.57;;;4.50;99.90;;;;;;5101109;28;20607;-82
2022/12/03 00:52:56;;;;;;;18.90;10.63;;;4.50;99.90;;;;;;5089057;28;20039;-82
2022/12/03 00:55:21;;;;;;;17.80;9.65;;;6.40;99.90;;;;;;5091583;28;20105;-83
2022/12/03 00:57:47;;;;;;;17.98;9.43;;;4.50;99.90;;;;;;5101548;28;20036;-83
2022/12/03 01:00:14;;;;;;;19.15;9.68;;;4.80;99.90;;;;;;5105249;28;20199;-82
2022/12/03 01:02:39;;;;;;;18.15;10.07;;;4.40;99.90;;;;;;5089710;28;20048;-82
2022/12/03 01:05:08;;;;;;;18.10;9.77;;;4.50;99.90;;;;;;5097357;28;20098;-82
2022/12/03 01:07:34;;;;;;;19.45;10.32;;;4.40;99.90;;;;;;5055425;28;20123;-81
2022/12/03 01:10:01;;;;;;;18.02;9.80;;;4.50;99.90;;;;;;5090307;28;20123;-83
2022/12/03 01:12:27;;;;;;;19.73;10.13;;;4.40;99.90;;;;;;5091685;28;20149;-83
2022/12/03 01:14:53;;;;;;;20.15;10.57;;;4.60;99.90;;;;;;5073173;28;20040;-84
2022/12/03 01:17:18;;;;;;;20.70;10.90;;;6.30;99.90;;;;;;5088243;28;20085;-83
2022/12/03 01:19:44;;;;;;;17.92;10.00;;;4.40;99.90;;;;;;5072207;28;20115;-82
2022/12/03 01:22:10;;;;;;;21.27;11.23;;;5.00;99.90;;;;;;5055385;28;20058;-82
2022/12/03 01:24:36;;;;;;;19.70;10.80;;;4.40;99.90;;;;;;5076216;28;20080;-83
2022/12/03 01:27:01;;;;;;;20.67;11.18;;;4.80;99.90;;;;;;5092637;28;20032;-84
2022/12/03 01:29:27;;;;;;;18.15;10.23;;;4.70;99.90;;;;;;5084760;28;20397;-82
2022/12/03 01:34:38;;;;;;;20.50;10.98;;;4.70;99.90;;;;;;5107954;28;20035;-84
2022/12/03 01:37:03;;;;;;;21.77;11.05;;;6.00;99.90;;;;;;5091200;28;20378;-83
2022/12/03 01:39:29;;;;;;;20.75;11.20;;;4.90;99.90;;;;;;5095188;28;20068;-83
2022/12/03 01:41:56;;;;;;;21.88;11.70;;;4.40;99.90;;;;;;5071454;28;20047;-82
2022/12/03 01:44:28;;;;;;;20.17;11.55;;;4.20;99.90;;;;;;5071594;28;20415;-83
2022/12/03 01:46:57;;;;;;;21.47;12.13;;;4.10;99.90;;;;;;5095424;28;20055;-83
2022/12/03 01:49:26;;;;;;;21.95;12.30;;;4.10;99.90;;;;;;5082106;28;20343;-82
2022/12/03 01:51:53;;;;;;;21.65;11.98;;;4.10;99.90;;;;;;5076487;28;20047;-83
2022/12/03 01:54:27;;;;;;;21.65;11.38;;;4.10;99.90;;;;;;5103604;28;20122;-83
2022/12/03 01:56:54;;;;;;;20.05;11.73;;;4.00;99.90;;;;;;5088834;28;20047;-83
2022/12/03 01:59:25;;;;;;;21.58;11.10;;;4.10;99.90;;;;;;5091472;28;20458;-84
2022/12/03 02:01:51;;;;;;;20.13;10.73;;;4.60;99.90;;;;;;5094437;28;20035;-83
2022/12/03 02:04:21;;;;;;;20.98;11.90;;;4.10;99.90;;;;;;5096638;28;20489;-84
2022/12/03 02:06:47;;;;;;;21.42;11.40;;;4.10;99.90;;;;;;5095012;28;20518;-81
2022/12/03 02:09:13;;;;;;;21.65;11.80;;;4.10;99.90;;;;;;5094495;28;20048;-83
2022/12/03 02:11:49;;;;;;;22.15;12.32;;;4.10;99.90;;;;;;5076245;28;20109;-83
2022/12/03 02:14:18;;;;;;;20.52;11.15;;;4.40;99.90;;;;;;5093237;28;20441;-83
2022/12/03 02:16:45;;;;;;;21.27;11.90;;;4.10;99.90;;;;;;5092265;28;20494;-82
2022/12/03 02:19:22;;;;;;;21.45;11.57;;;4.10;99.90;;;;;;5106397;28;20381;-83
2022/12/03 02:22:09;;;;;;;20.50;11.23;;;4.10;99.90;;;;;;5095694;28;20432;-82
2022/12/03 02:25:01;;;;;;;22.15;11.63;;;5.80;99.90;;;;;;5094273;28;20040;-82
2022/12/03 02:27:27;;;;;;;20.50;10.80;;;4.10;99.90;;;;;;5087905;28;20036;-82
2022/12/03 02:29:53;;;;;;;19.92;11.20;;;4.90;99.90;;;;;;5094406;28;20185;-82
2022/12/03 02:32:22;;;;;;;22.45;11.02;;;4.10;99.90;;;;;;5073710;28;20043;-83
2022/12/03 02:34:49;;;;;;;20.88;11.27;;;4.10;99.90;;;;;;5092428;28;20451;-83
2022/12/03 02:37:25;;;;;;;20.30;10.80;;;3.70;99.90;;;;;;5091392;28;20405;-82
2022/12/03 02:39:57;;;;;;;21.20;10.88;;;4.10;99.90;;;;;;5095152;28;20127;-82
2022/12/03 02:42:35;;;;;;;22.73;10.65;;;4.10;99.90;;;;;;5087056;28;20044;-83
2022/12/03 02:45:26;;;;;;;19.45;10.93;;;4.10;99.90;;;;;;5098305;28;20034;-83
2022/12/03 02:48:01;;;;;;;18.70;10.07;;;4.10;99.90;;;;;;5091870;28;20036;-83
2022/12/03 02:50:31;;;;;;;21.77;11.20;;;4.10;99.90;;;;;;5093102;28;20083;-83
2022/12/03 02:52:59;;;;;;;21.10;12.05;;;4.00;99.90;;;;;;5095019;28;20051;-83
2022/12/03 02:55:28;;;;;;;18.33;10.57;;;4.10;99.90;;;;;;5092517;28;20108;-82
2022/12/03 02:57:54;;;;;;;18.98;10.45;;;4.10;99.90;;;;;;5099863;28;20680;-82
2022/12/03 03:00:21;;;;;;;18.88;10.38;;;4.90;99.90;;;;;;5093621;28;20039;-82
2022/12/03 03:02:49;;;;;;;19.70;11.02;;;4.10;99.90;;;;;;5093589;28;20125;-83
2022/12/03 03:05:20;;;;;;;19.45;10.63;;;5.90;99.90;;;;;;5091237;28;20395;-83
2022/12/03 03:07:47;;;;;;;21.67;10.57;;;4.20;99.90;;;;;;5096863;28;20043;-82
2022/12/03 03:10:17;;;;;;;20.45;11.43;;;4.00;99.90;;;;;;5105399;28;20066;-83
2022/12/03 03:12:43;;;;;;;21.63;11.60;;;4.00;99.90;;;;;;5090969;28;20055;-82
2022/12/03 03:15:10;;;;;;;20.05;10.50;;;4.00;99.90;;;;;;5072714;28;20052;-83
2022/12/03 03:17:36;;;;;;;20.80;11.32;;;3.90;99.90;;;;;;5078826;28;20162;-83
2022/12/03 03:20:04;;;;;;;23.40;11.50;;;4.00;99.90;;;;;;5075325;28;20127;-82
2022/12/03 03:22:39;;;;;;;21.00;11.52;;;3.90;99.90;;;;;;5092662;28;20048;-82
2022/12/03 03:25:07;;;;;;;20.15;11.57;;;3.80;99.90;;;;;;5102565;28;20378;-82
2022/12/03 03:27:34;;;;;;;20.52;11.00;;;3.80;99.90;;;;;;5095493;28;20050;-84
2022/12/03 03:30:00;;;;;;;22.08;11.38;;;3.80;99.90;;;;;;5090831;28;20035;-82
2022/12/03 03:32:27;;;;;;;23.15;12.32;;;4.10;99.90;;;;;;5080768;28;20455;-83
2022/12/03 03:34:54;;;;;;;20.92;11.52;;;3.80;99.90;;;;;;5087295;28;20075;-83
2022/12/03 03:37:20;;;;;;;21.17;11.50;;;4.10;99.90;;;;;;5098638;28;20039;-83
2022/12/03 03:39:46;;;;;;;22.88;12.02;;;3.70;99.90;;;;;;5095674;28;20450;-82
2022/12/03 03:42:11;;;;;;;21.38;10.88;;;3.70;99.90;;;;;;5093418;28;20040;-83
2022/12/03 03:44:37;;;;;;;19.42;11.00;;;5.10;99.90;;;;;;5093398;28;20036;-82
2022/12/03 03:47:03;;;;;;;21.58;12.18;;;3.70;99.90;;;;;;5093086;28;20164;-82
2022/12/03 03:49:29;;;;;;;19.30;11.20;;;3.70;99.90;;;;;;5090491;28;20090;-84
2022/12/03 03:51:55;;;;;;;23.85;11.95;;;4.50;99.90;;;;;;5077858;28;20039;-84
2022/12/03 03:54:24;;;;;;;24.50;12.38;;;4.50;99.90;;;;;;5097596;28;20075;-83
2022/12/03 03:56:50;;;;;;;20.77;11.60;;;3.70;99.90;;;;;;5089680;28;20044;-83
2022/12/03 03:59:19;;;;;;;21.00;11.38;;;4.80;99.90;;;;;;5090524;28;20036;-84
2022/12/03 04:01:45;;;;;;;19.90;11.07;;;3.70;99.90;;;;;;5091576;28;20036;-83
2022/12/03 04:04:23;;;;;;;20.60;11.52;;;3.70;99.90;;;;;;5092907;28;20037;-83
2022/12/03 04:06:49;;;;;;;19.73;11.13;;;3.70;99.90;;;;;;5090038;28;20055;-82
2022/12/03 04:09:15;;;;;;;23.52;11.93;;;4.70;99.90;;;;;;5088498;28;20066;-82
2022/12/03 04:14:25;;;;;;;21.92;11.82;;;4.80;99.90;;;;;;5089542;28;20052;-84
2022/12/03 04:16:51;;;;;;;22.92;12.10;;;3.90;99.90;;;;;;5089577;28;20035;-82
2022/12/03 04:19:16;;;;;;;21.63;12.00;;;3.70;99.90;;;;;;5091766;28;20107;-82
2022/12/03 04:24:26;;;;;;;22.00;11.70;;;4.10;99.90;;;;;;5098948;28;20122;-83
2022/12/03 04:29:36;;;;;;;23.45;12.25;;;3.70;99.90;;;;;;5089799;28;20040;-81
2022/12/03 04:37:31;;;;;;;21.55;12.70;;;4.20;99.90;;;;;;5094446;28;20052;-82
2022/12/03 04:39:57;;;;;;;24.15;12.60;;;3.70;99.90;;;;;;5091089;28;20421;-81
2022/12/03 04:42:22;;;;;;;23.17;12.00;;;3.70;99.90;;;;;;5072437;28;20082;-82
2022/12/03 04:44:48;;;;;;;23.50;12.93;;;3.60;99.90;;;;;;5057486;28;20549;-82
2022/12/03 04:47:20;;;;;;;22.52;11.75;;;3.60;99.90;;;;;;5099596;28;20051;-83
2022/12/03 04:49:50;;;;;;;22.75;12.35;;;4.90;99.90;;;;;;5099769;28;20040;-82
2022/12/03 04:52:18;;;;;;;24.02;12.77;;;3.60;99.90;;;;;;5096729;28;20466;-82
2022/12/03 04:54:44;;;;;;;23.17;13.02;;;4.50;99.90;;;;;;5091509;28;20350;-82
2022/12/03 04:57:11;;;;;;;22.10;12.30;;;4.80;99.90;;;;;;5072116;28;20436;-83
2022/12/03 04:59:37;;;;;;;21.25;11.52;;;4.20;99.90;;;;;;5086559;28;20047;-82
2022/12/03 05:02:03;;;;;;;23.40;12.32;;;4.50;99.90;;;;;;5088894;28;20036;-83
2022/12/03 05:04:30;;;;;;;22.77;12.43;;;3.60;99.90;;;;;;5100840;28;20539;-83
2022/12/03 05:06:56;;;;;;;22.17;12.43;;;3.60;99.90;;;;;;5082226;28;20044;-82
2022/12/03 05:09:22;;;;;;;22.25;11.88;;;3.60;99.90;;;;;;5085264;28;20074;-82
2022/12/03 05:11:47;;;;;;;20.50;11.40;;;3.60;99.90;;;;;;5069946;28;20492;-83
2022/12/03 05:14:13;;;;;;;21.42;12.43;;;3.60;99.90;;;;;;5074185;28;20055;-82
2022/12/03 05:16:39;;;;;;;21.77;11.60;;;3.60;99.90;;;;;;5055658;28;20044;-83
2022/12/03 05:19:06;;;;;;;23.95;12.55;;;3.50;99.90;;;;;;5085655;28;20035;-83
2022/12/03 05:21:32;;;;;;;23.95;13.63;;;3.70;99.90;;;;;;5093913;28;20031;-82
2022/12/03 05:23:57;;;;;;;24.65;12.82;;;4.80;99.90;;;;;;5097058;28;20180;-82
2022/12/03 05:26:23;;;;;;;23.33;12.70;;;3.50;99.90;;;;;;5101971;28;20186;-83
2022/12/03 05:28:49;;;;;;;24.52;12.63;;;3.50;99.90;;;;;;5074803;28;20488;-82
2022/12/03 05:31:18;;;;;;;21.88;12.05;;;3.50;99.90;;;;;;5087351;28;20119;-81
2022/12/03 05:33:43;;;;;;;24.05;12.38;;;3.90;99.90;;;;;;5056196;28;20506;-84
2022/12/03 05:36:09;;;;;;;21.95;11.90;;;3.50;99.90;;;;;;5087408;28;20122;-80
2022/12/03 05:38:35;;;;;;;23.23;12.35;;;3.50;99.90;;;;;;5101000;28;20200;-82
2022/12/03 05:41:01;;;;;;;22.48;11.80;;;3.90;99.90;;;;;;5070461;28;20032;-82
2022/12/03 05:43:27;;;;;;;23.77;12.38;;;4.20;99.90;;;;;;5092402;28;20044;-83
2022/12/03 05:45:52;;;;;;;22.23;11.63;;;3.40;99.90;;;;;;5098699;28;20028;-83
2022/12/03 05:48:18;;;;;;;23.88;11.95;;;3.00;99.90;;;;;;5071714;28;20047;-82
2022/12/03 05:50:45;;;;;;;24.73;12.70;;;4.60;99.90;;;;;;5074783;28;20555;-82
2022/12/03 05:53:15;;;;;;;23.27;12.20;;;4.30;99.90;;;;;;5090250;28;20109;-83
2022/12/03 05:55:41;;;;;;;22.48;13.13;;;3.40;99.90;;;;;;5088408;28;20038;-82
2022/12/03 05:58:07;;;;;;;22.85;11.85;;;3.40;99.90;;;;;;5074390;28;20048;-82
2022/12/03 06:00:38;;;;;;;23.10;12.50;;;3.40;99.90;;;;;;5081062;28;20186;-82
2022/12/03 06:03:05;;;;;;;25.85;13.68;;;3.50;99.90;;;;;;5081561;28;20118;-82
2022/12/03 06:05:31;;;;;;;24.10;12.73;;;4.40;99.90;;;;;;5098601;28;20127;-83
2022/12/03 06:07:56;;;;;;;23.13;12.55;;;3.50;99.90;;;;;;5098938;28;20118;-82
2022/12/03 06:10:24;;;;;;;22.75;12.10;;;3.50;99.90;;;;;;5094630;28;20044;-83
2022/12/03 06:12:50;;;;;;;23.65;11.82;;;3.50;99.90;;;;;;5094840;28;20591;-82
2022/12/03 06:15:16;;;;;;;22.00;11.45;;;3.50;99.90;;;;;;5060384;28;20115;-82
2022/12/03 06:17:42;;;;;;;22.17;11.32;;;3.50;99.90;;;;;;5091232;28;20071;-83
2022/12/03 06:20:14;;;;;;;23.92;11.90;;;4.30;99.90;;;;;;5079122;28;20509;-81
2022/12/03 06:22:40;;;;;;;21.13;11.13;;;3.50;99.90;;;;;;5072172;28;20056;-82
2022/12/03 06:25:06;;;;;;;21.67;11.13;;;3.50;99.90;;;;;;5089478;28;20120;-82
2022/12/03 06:27:32;;;;;;;22.35;11.20;;;3.50;99.90;;;;;;5093239;28;20170;-83
2022/12/03 06:29:58;;;;;;;21.40;11.85;;;3.70;99.90;;;;;;5079772;28;20205;-83
2022/12/03 06:32:24;;;;;;;21.38;11.30;;;3.50;99.90;;;;;;5072970;28;20061;-81
2022/12/03 06:34:52;;;;;;;23.42;11.25;;;3.40;99.90;;;;;;5064059;28;20040;-83
2022/12/03 06:37:18;;;;;;;23.77;12.07;;;4.00;99.90;;;;;;5096395;28;20048;-82
2022/12/03 06:39:43;;;;;;;21.92;11.07;;;3.90;99.90;;;;;;5096083;28;20044;-82
2022/12/03 06:42:09;;;;;;;22.35;11.57;;;3.90;99.90;;;;;;5102973;28;20065;-83
2022/12/03 06:44:35;;;;;;;21.65;11.00;;;5.00;99.90;;;;;;5087323;28;20040;-82
2022/12/03 06:47:00;;;;;;;21.45;11.43;;;3.70;99.90;;;;;;5091947;28;20109;-83
2022/12/03 06:49:26;;;;;;;21.85;11.80;;;3.40;99.90;;;;;;5092916;28;20464;-83
2022/12/03 06:51:55;;;;;;;20.70;11.00;;;3.40;99.90;;;;;;5070155;28;20062;-82
2022/12/03 06:54:21;;;;;;;23.33;12.05;;;3.40;99.90;;;;;;5091203;28;20042;-83
2022/12/03 06:56:46;;;;;;;23.23;11.70;;;3.60;99.90;;;;;;5078421;28;20123;-82
2022/12/03 06:59:12;;;;;;;23.35;11.90;;;3.40;99.90;;;;;;5093710;28;20031;-83
2022/12/03 07:01:38;;;;;;;21.83;11.23;;;3.40;99.90;;;;;;5096046;28;20064;-82
2022/12/03 07:04:04;;;;;;;21.63;11.23;;;4.20;99.90;;;;;;5093434;28;20111;-82
2022/12/03 07:06:30;;;;;;;22.05;10.77;;;3.30;99.90;;;;;;5099790;28;20043;-82
2022/12/03 07:08:55;;;;;;;20.67;10.68;;;3.60;99.90;;;;;;5074004;28;20040;-81
2022/12/03 07:11:30;;;;;;;21.67;11.48;;;3.30;99.90;;;;;;5077527;28;20036;-83
2022/12/03 07:14:01;;;;;;;23.13;11.82;;;3.30;99.90;;;;;;5091189;28;20519;-77
2022/12/03 07:16:27;;;;;;;23.35;11.05;;;4.00;99.90;;;;;;5101958;28;20043;-74
2022/12/03 07:18:54;;;;;;;21.10;11.23;;;4.60;99.90;;;;;;5089599;28;20642;-75
2022/12/03 07:21:20;;;;;;;23.20;11.40;;;4.40;99.90;;;;;;5100164;28;20820;-76
2022/12/03 07:23:46;;;;;;;22.15;11.07;;;3.90;99.90;;;;;;5088859;28;20086;-75
2022/12/03 07:26:11;;;;;;;21.55;10.88;;;3.20;99.90;;;;;;5089828;28;20036;-76
2022/12/03 07:28:37;;;;;;;23.02;11.23;;;3.30;99.90;;;;;;5092925;28;20108;-75
2022/12/03 07:31:04;;;;;;;19.75;10.88;;;3.20;99.90;;;;;;5084761;28;20506;-75
2022/12/03 07:33:30;;;;;;;21.02;11.07;;;3.20;99.90;;;;;;5090148;28;20032;-75
2022/12/03 07:35:56;;;;;;;22.88;11.55;;;3.70;99.90;;;;;;5089629;28;20119;-76
2022/12/03 07:38:21;;;;;;;22.55;11.57;;;3.20;99.90;;;;;;5093600;28;20036;-76
2022/12/03 07:40:47;;;;;;;21.60;10.73;;;3.90;99.90;;;;;;5095076;28;20042;-75
2022/12/03 07:43:13;;;;;;;22.15;10.70;;;4.80;99.90;;;;;;5100551;28;20032;-74
2022/12/03 07:45:38;;;;;;;22.30;11.55;;;3.20;99.90;;;;;;5089317;28;20115;-75
2022/12/03 07:48:04;;;;;;;23.40;11.95;;;3.50;99.90;;;;;;5091299;28;20036;-76
2022/12/03 07:50:33;;;;;;;24.42;11.98;;;3.20;99.90;;;;;;5073123;28;20044;-77
2022/12/03 07:52:59;;;;;;;24.13;11.85;;;3.10;99.90;;;;;;5092215;28;20039;-76
2022/12/03 07:55:24;;;;;;;24.60;11.60;;;3.10;99.90;;;;;;5097163;28;20405;-75
2022/12/03 07:57:50;;;;;;;23.02;11.82;;;4.10;99.90;;;;;;5068123;28;20047;-75
2022/12/03 08:00:18;;;;;;;25.52;12.30;;;3.10;99.90;;;;;;5074909;28;20153;-76
2022/12/03 08:02:44;;;;;;;22.92;11.25;;;3.10;99.90;;;;;;5088199;28;20043;-75
2022/12/03 08:05:10;;;;;;;22.42;11.75;;;3.10;99.90;;;;;;5092201;28;20032;-75
2022/12/03 08:07:36;;;;;;;24.30;11.48;;;5.00;99.90;;;;;;5081727;28;20039;-75
2022/12/03 08:10:04;;;;;;;22.92;11.70;;;3.10;99.90;;;;;;5097458;28;20043;-76
2022/12/03 08:12:38;;;;;;;23.52;12.32;;;3.10;99.90;;;;;;5093043;28;20036;-76
2022/12/03 08:15:18;;;;;;;23.33;11.63;;;3.10;99.90;;;;;;5090884;28;20050;-76
2022/12/03 08:17:46;;;;;;;23.80;11.27;;;3.00;99.90;;;;;;5095194;28;20413;-75
2022/12/03 08:20:33;;;;;;;23.20;11.75;;;3.10;99.90;;;;;;5071407;28;20050;-76
2022/12/03 08:23:05;;;;;;;25.35;11.93;;;4.10;99.90;;;;;;5090389;28;20056;-76
2022/12/03 08:25:32;;;;;;;22.55;11.88;;;4.50;99.90;;;;;;5087888;28;20024;-76
2022/12/03 08:28:17;;;;;;;23.75;11.50;;;4.30;99.90;;;;;;5101727;28;20496;-76
2022/12/03 08:30:54;;;;;;;24.67;12.40;;;3.00;99.90;;;;;;5089323;28;20039;-75
2022/12/03 08:33:47;;;;;;;22.00;11.55;;;3.00;99.90;;;;;;5101873;28;20450;-75
2022/12/03 08:36:28;;;;;;;25.95;12.52;;;3.10;99.90;;;;;;5070089;28;20043;-75
2022/12/03 08:39:00;;;;;;;24.52;12.50;;;3.00;99.90;;;;;;5087658;28;20046;-75
2022/12/03 08:44:25;;;;;;;24.70;12.15;;;3.00;99.90;;;;;;5085133;28;20127;-74
2022/12/03 08:47:20;;;;;;;25.73;12.23;;;3.00;99.90;;;;;;5071730;28;20044;-76
2022/12/03 08:49:56;;;;;;;26.83;13.52;;;3.00;99.90;;;;;;5094885;28;20032;-77
2022/12/03 08:52:30;;;;;;;22.83;11.95;;;4.00;99.90;;;;;;5092254;28;20641;-77
2022/12/03 08:55:31;;;;;;;24.85;13.00;;;3.00;99.90;;;;;;5103663;28;20077;-75
2022/12/03 08:58:04;;;;;;;24.85;12.52;;;2.90;99.90;;;;;;5099444;28;20078;-74
2022/12/03 09:00:31;;;;;;;26.83;12.98;;;3.70;99.90;;;;;;5098439;28;20261;-74
2022/12/03 09:02:59;;;;;;;25.30;13.35;;;2.90;99.90;;;;;;5090065;28;20036;-75
2022/12/03 09:05:31;;;;;;;26.95;13.45;;;4.00;99.90;;;;;;5101287;28;20268;-75
2022/12/03 09:07:57;;;;;;;25.13;12.60;;;4.50;99.90;;;;;;5073969;28;20078;-75
2022/12/03 09:10:22;;;;;;;25.73;13.50;;;3.80;99.90;;;;;;5082209;28;20078;-74
2022/12/03 09:12:48;;;;;;;27.73;13.32;;;2.00;99.90;;;;;;5101391;28;20035;-75
2022/12/03 09:15:14;;;;;;;29.45;13.43;;;2.90;99.90;;;;;;5078661;28;20040;-75
2022/12/03 09:17:40;;;;;;;26.75;14.23;;;2.90;99.90;;;;;;5094771;28;20119;-75
2022/12/03 09:20:06;;;;;;;27.90;14.32;;;2.90;99.90;;;;;;5063062;28;20482;-77
2022/12/03 09:22:32;;;;;;;26.40;13.98;;;2.90;99.90;;;;;;5095005;28;20060;-75
2022/12/03 09:24:58;;;;;;;26.95;13.73;;;3.70;99.90;;;;;;5086912;28;20039;-75
2022/12/03 09:27:23;;;;;;;27.58;14.52;;;2.90;99.90;;;;;;5095600;28;20385;-77
2022/12/03 09:29:50;;;;;;;27.50;14.32;;;3.20;99.90;;;;;;5090696;28;20044;-74
2022/12/03 09:32:16;;;;;;;29.58;14.25;;;3.70;99.90;;;;;;5065103;28;20036;-75
2022/12/03 09:34:44;;;;;;;26.48;14.27;;;3.50;99.90;;;;;;5093742;28;20044;-74
2022/12/03 09:37:10;;;;;;;26.80;13.68;;;4.30;99.90;;;;;;5059398;28;20042;-74
2022/12/03 09:39:45;;;;;;;27.83;14.88;;;2.80;99.90;;;;;;5091545;28;20044;-76
2022/12/03 09:42:11;;;;;;;30.13;14.45;;;2.80;99.90;;;;;;5092101;28;20501;-75
2022/12/03 09:44:37;;;;;;;28.27;14.18;;;3.50;99.90;;;;;;5071497;28;20065;-75
2022/12/03 09:47:04;;;;;;;25.75;13.65;;;2.80;99.90;;;;;;5092461;28;20040;-75
2022/12/03 09:49:31;;;;;;;29.08;13.73;;;2.80;99.90;;;;;;5078089;28;20048;-75
2022/12/03 09:52:06;;;;;;;28.33;14.18;;;3.10;99.90;;;;;;5098058;28;20040;-74
2022/12/03 09:54:32;;;;;;;28.48;13.93;;;;;;;;;;5090396;28;20267;-75
2022/12/03 09:57:02;;;;;;;26.27;14.35;;;4.10;99.90;;;;;;5100498;28;20122;-74
2022/12/03 09:59:33;;;;;;;27.88;14.23;;;2.90;99.90;;;;;;5092993;28;20054;-74
2022/12/03 10:02:00;;;;;;;29.55;14.70;;;4.10;99.90;;;;;;5075143;28;20052;-73
2022/12/03 10:04:29;;;;;;;26.20;13.73;;;2.90;99.90;;;;;;5081066;28;20115;-74
2022/12/03 10:06:58;;;;;;;24.52;13.18;;;2.90;99.90;;;;;;5077616;28;20043;-75
2022/12/03 10:09:26;;;;;;;26.40;13.88;;;2.80;99.90;;;;;;5079567;28;20069;-75
2022/12/03 10:11:53;;;;;;;24.73;13.18;;;3.00;99.90;;;;;;5082788;28;20385;-74
2022/12/03 10:14:19;;;;;;;26.35;14.15;;;2.80;99.90;;;;;;5081172;28;20392;-75
2022/12/03 10:16:50;;;;;;;26.63;13.68;;;2.80;99.90;;;;;;5089857;28;20040;-75
2022/12/03 10:19:26;;;;;;;25.25;13.73;;;2.80;99.90;;;;;;5107665;28;20075;-74
2022/12/03 10:21:57;;;;;;;26.38;13.88;;;2.20;99.90;;;;;;5086181;28;20052;-74
2022/12/03 10:24:25;;;;;;;26.00;13.52;;;2.80;99.90;;;;;;5096149;28;20031;-74
2022/12/03 10:26:53;;;;;;;25.15;13.82;;;2.90;99.90;;;;;;5088788;28;20048;-74
2022/12/03 10:29:25;;;;;;;26.88;14.10;;;2.80;99.90;;;;;;5100409;28;20664;-75
2022/12/03 10:32:08;;;;;;;27.67;13.80;;;4.80;99.90;;;;;;5094876;28;20062;-75
2022/12/03 10:34:36;;;;;;;;;;;2.80;99.90;;;;;;5110262;28;20040;-75
2022/12/03 10:37:12;;;;;;;26.77;13.52;;;2.80;99.90;;;;;;5099860;28;19920;-74
2022/12/03 10:39:56;;;;;;;26.05;13.68;;;2.80;99.90;;;;;;5094160;28;20032;-75
2022/12/03 10:42:23;;;;;;;27.75;13.40;;;2.80;99.90;;;;;;5092783;28;20043;-74
2022/12/03 10:45:05;;;;;;;29.33;15.30;;;2.80;99.90;;;;;;5092534;28;20047;-74
2022/12/03 10:47:30;;;;;;;29.20;14.95;;;4.10;99.90;;;;;;5091387;28;20055;-75
2022/12/03 10:50:03;;;;;;;28.33;14.27;;;2.80;99.90;;;;;;5093075;28;20080;-74
2022/12/03 10:52:29;;;;;;;;;;;2.80;99.90;;;;;;5097027;28;20044;-74
2022/12/03 10:54:55;;;;;;;25.55;13.63;;;2.90;99.90;;;;;;5091745;28;19977;-75
2022/12/03 10:57:22;;;;;;;27.45;13.93;;;4.50;99.90;;;;;;5091160;28;20452;-76
2022/12/03 10:59:48;;;;;;;26.75;13.70;;;2.90;99.90;;;;;;5092551;28;20036;-74
2022/12/03 11:02:21;;;;;;;26.40;14.32;;;2.90;99.90;;;;;;5091595;28;20032;-75
2022/12/03 11:04:48;;;;;;;26.75;13.63;;;3.20;99.90;;;;;;5074115;28;20043;-74
2022/12/03 11:07:19;;;;;;;27.40;13.70;;;2.90;99.90;;;;;;5079788;28;20775;-74
2022/12/03 11:09:48;;;;;;;28.52;14.25;;;2.90;99.90;;;;;;5099714;28;20055;-76
2022/12/03 11:12:22;;;;;;;26.88;13.18;;;3.90;99.90;;;;;;5098389;28;20043;-75
2022/12/03 11:14:51;;;;;;;24.98;13.50;;;2.90;99.90;;;;;;5094608;28;20078;-74
2022/12/03 11:17:39;;;;;;;29.48;14.70;;;3.00;99.90;;;;;;5073335;28;20048;-74
2022/12/03 11:20:31;;;;;;;27.65;14.18;;;3.00;99.90;;;;;;5096852;28;20040;-75
2022/12/03 11:22:58;;;;;;;27.60;14.00;;;3.00;99.90;;;;;;5046834;28;20052;-74
2022/12/03 11:25:23;;;;;;;27.73;14.70;;;3.10;99.90;;;;;;5092266;28;20557;-74
2022/12/03 11:28:32;;;;;;;26.02;14.25;;;2.70;99.90;;;;;;5073940;28;20052;-74
2022/12/03 11:31:08;;;;;;;27.65;14.00;;;3.00;99.90;;;;;;5005559;28;20044;-75
2022/12/03 11:34:15;;;;;;;28.50;14.60;;;3.00;99.90;;;;;;5001334;28;20046;-75
2022/12/03 11:37:11;;;;;;;28.70;14.57;;;3.00;99.90;;;;;;5080380;28;20059;-73
2022/12/03 11:39:49;;;;;;;28.48;14.60;;;3.00;99.90;;;;;;5102968;28;20044;-75
2022/12/03 11:45:09;;;;;;;26.58;14.05;;;3.00;99.90;;;;;;5096251;28;20073;-75
2022/12/03 11:47:42;;;;;;;27.65;14.25;;;3.00;99.90;;;;;;5074476;28;20098;-75
2022/12/03 11:50:22;;;;;;;;;;;3.00;99.90;;;;;;5087498;28;20052;-75
2022/12/03 11:53:00;;;;;;;28.48;14.43;;;2.90;99.90;;;;;;5085389;28;19979;-75
2022/12/03 11:55:36;;;;;;;30.40;15.32;;;4.10;99.90;;;;;;5080591;28;20055;-76
2022/12/03 11:58:25;;;;;;;30.42;14.40;;;3.00;99.90;;;;;;5098564;28;20054;-77
2022/12/03 12:00:53;;;;;;;28.30;14.35;;;4.30;99.90;;;;;;5082776;28;20044;-75
2022/12/03 12:03:28;;;;;;;29.00;14.68;;;3.60;99.90;;;;;;5090991;28;20039;-75
2022/12/03 12:06:07;;;;;;;28.58;14.98;;;4.10;99.90;;;;;;5101322;28;20046;-75
2022/12/03 12:08:35;;;;;;;27.58;14.65;;;2.40;99.90;;;;;;5098773;28;20323;-75
2022/12/03 12:11:02;;;;;;;26.98;13.93;;;3.00;99.90;;;;;;5096185;28;20047;-74
2022/12/03 12:13:30;;;;;;;27.25;14.27;;;3.00;99.90;;;;;;5072207;28;20039;-75
2022/12/03 12:16:15;;;;;;;30.80;15.25;;;3.00;99.90;;;;;;5089658;28;20040;-74
2022/12/03 12:18:50;;;;;;;27.02;14.50;;;2.90;99.90;;;;;;5099377;28;21057;-75
2022/12/03 12:21:48;;;;;;;28.25;14.98;;;3.00;99.90;;;;;;5098874;28;20048;-75
2022/12/03 12:24:38;;;;;;;28.02;13.80;;;2.90;99.90;;;;;;5065386;28;20525;-75
2022/12/03 12:27:08;;;;;;;26.67;13.60;;;2.90;99.90;;;;;;5048388;28;20506;-74
2022/12/03 12:29:38;;;;;;;26.95;14.40;;;2.90;99.90;;;;;;5053778;28;20040;-75
2022/12/03 12:32:07;;;;;;;29.02;15.07;;;2.90;99.90;;;;;;5050855;28;20591;-74
2022/12/03 12:34:35;;;;;;;28.35;14.90;;;3.00;99.90;;;;;;5048663;28;20040;-75
2022/12/03 12:37:01;;;;;;;25.67;12.95;;;3.60;99.90;;;;;;5052123;28;20040;-74
2022/12/03 12:39:27;;;;;;;26.65;14.65;;;3.90;99.90;;;;;;5050142;28;20516;-76
2022/12/03 12:41:53;;;;;;;28.48;14.05;;;;;;;;;;5027764;28;20044;-76
2022/12/03 12:44:22;;;;;;;27.73;14.75;;;3.00;99.90;;;;;;5055365;28;20583;-74
2022/12/03 12:46:52;;;;;;;26.88;14.68;;;4.00;99.90;;;;;;5053180;28;20344;-74
2022/12/03 12:49:22;;;;;;;28.90;15.27;;;2.90;99.90;;;;;;5052946;28;20041;-75
2022/12/03 12:51:49;;;;;;;28.77;15.05;;;2.90;99.90;;;;;;5053698;28;20075;-75
2022/12/03 12:54:16;;;;;;;27.80;15.18;;;2.90;99.90;;;;;;5040250;28;20041;-75
2022/12/03 12:56:44;;;;;;;28.15;14.77;;;3.80;99.90;;;;;;5056255;28;20056;-74
2022/12/03 12:59:19;;;;;;;27.58;14.02;;;3.00;99.90;;;;;;5050500;28;20561;-74
2022/12/03 13:01:47;;;;;;;24.60;13.30;;;2.90;99.90;;;;;;5055138;28;20079;-74
2022/12/03 13:04:23;;;;;;;27.73;14.27;;;2.90;99.90;;;;;;5049854;28;20166;-75
2022/12/03 13:06:53;;;;;;;28.00;15.13;;;2.90;99.90;;;;;;5032139;28;20052;-75
2022/12/03 13:09:23;;;;;;;27.98;14.88;;;4.70;99.90;;;;;;5023603;28;20113;-75
2022/12/03 13:11:57;;;;;;;25.40;14.52;;;2.90;99.90;;;;;;5050889;28;20597;-74